createdAt,value
2022-09-24T04:15:33.127Z,99715.78
2022-09-24T04:18:00.109Z,99712.28
2022-09-24T04:20:28.663Z,99703.66
2022-09-24T04:22:56.870Z,99707.28
2022-09-24T04:25:24.655Z,99701.94
2022-09-24T04:27:56.230Z,99712.44
2022-09-24T04:30:24.608Z,99701.06
2022-09-24T04:32:54.052Z,99703.66
2022-09-24T04:35:24.989Z,99707.84
2022-09-24T04:37:52.211Z,99706.81
2022-09-24T04:40:19.750Z,99707.53
2022-09-24T04:42:46.404Z,99706.97
2022-09-24T04:45:20.131Z,99707.00
2022-09-24T04:47:52.494Z,99710.25
2022-09-24T04:50:20.038Z,99719.13
2022-09-24T04:52:50.056Z,99713.84
2022-09-24T04:55:16.648Z,99713.66
2022-09-24T04:57:46.733Z,99707.19
2022-09-24T05:00:27.753Z,99707.88
2022-09-24T05:03:03.487Z,99703.38
2022-09-24T05:05:31.513Z,99710.72
2022-09-24T05:07:58.578Z,99714.00
2022-09-24T05:10:26.280Z,99710.47
2022-09-24T05:12:53.205Z,99710.34
2022-09-24T05:15:19.895Z,99716.50
2022-09-24T05:17:46.513Z,99713.91
2022-09-24T05:20:14.417Z,99712.16
2022-09-24T05:22:45.495Z,99717.50
2022-09-24T05:25:16.768Z,99712.41
2022-09-24T05:27:51.899Z,99712.41
2022-09-24T05:30:20.652Z,99719.31
2022-09-24T05:32:52.194Z,99721.94
2022-09-24T05:35:20.460Z,99725.69
2022-09-24T05:37:49.518Z,99719.47
2022-09-24T05:40:35.281Z,99720.16
2022-09-24T05:43:07.358Z,99725.28
2022-09-24T05:45:33.810Z,99733.88
2022-09-24T05:48:00.504Z,99739.84
2022-09-24T05:50:27.443Z,99743.41
2022-09-24T05:52:57.246Z,99745.06
2022-09-24T05:55:23.796Z,99742.34
2022-09-24T05:57:50.290Z,99748.31
2022-09-24T06:00:16.878Z,99752.72
2022-09-24T06:02:43.559Z,99757.56
2022-09-24T06:05:10.625Z,99753.00
2022-09-24T06:07:37.254Z,99760.69
2022-09-24T06:10:07.147Z,99751.72
2022-09-24T06:12:37.045Z,99749.81
2022-09-24T06:15:04.236Z,99742.66
2022-09-24T06:17:31.842Z,99750.63
2022-09-24T06:19:58.409Z,99756.09
2022-09-24T06:22:28.341Z,99756.78
2022-09-24T06:24:55.340Z,99756.00
2022-09-24T06:27:21.881Z,99757.22
2022-09-24T06:29:48.559Z,99756.16
2022-09-24T06:32:15.109Z,99760.41
2022-09-24T06:34:41.699Z,99760.06
2022-09-24T06:37:08.228Z,99755.41
2022-09-24T06:39:34.715Z,99763.88
2022-09-24T06:42:01.207Z,99757.53
2022-09-24T06:44:34.607Z,99751.94
2022-09-24T06:47:01.785Z,99762.28
2022-09-24T06:49:33.855Z,99761.88
2022-09-24T06:52:00.939Z,99760.63
2022-09-24T06:54:27.807Z,99756.25
2022-09-24T06:56:54.445Z,99759.25
2022-09-24T06:59:21.167Z,99756.16
2022-09-24T07:01:47.844Z,99760.44
2022-09-24T07:04:20.134Z,99761.94
2022-09-24T07:07:08.084Z,99769.31
2022-09-24T07:09:40.894Z,99770.25
2022-09-24T07:12:09.813Z,99762.78
2022-09-24T07:18:04.166Z,99756.66
2022-09-24T07:21:38.562Z,99754.34
2022-09-24T07:24:15.726Z,99756.19
2022-09-24T07:26:42.588Z,99755.53
2022-09-24T07:29:09.234Z,99759.09
2022-09-24T07:31:39.290Z,99767.88
2022-09-24T07:34:09.250Z,99761.81
2022-09-24T07:37:58.437Z,99764.91
2022-09-24T07:40:34.713Z,99774.56
2022-09-24T07:43:27.517Z,99779.81
2022-09-24T07:45:58.092Z,99778.81
2022-09-24T07:48:27.462Z,99774.97
2022-09-24T07:50:53.938Z,99775.56
2022-09-24T07:53:23.220Z,99780.25
2022-09-24T07:55:50.043Z,99792.81
2022-09-24T07:58:34.427Z,99781.50
2022-09-24T08:01:21.648Z,99783.03
2022-09-24T08:08:48.347Z,99772.44
2022-09-24T08:11:15.448Z,99760.66
2022-09-24T08:13:44.848Z,99761.88
2022-09-24T08:16:12.102Z,99774.78
2022-09-24T08:18:39.650Z,99776.41
2022-09-24T08:21:12.861Z,99776.97
2022-09-24T08:23:40.146Z,99779.63
2022-09-24T08:26:06.915Z,99782.25
2022-09-24T08:28:34.520Z,99783.66
2022-09-24T08:31:08.902Z,99785.06
2022-09-24T08:33:41.684Z,99786.72
2022-09-24T08:36:09.920Z,99790.69
2022-09-24T08:38:37.026Z,99789.25
2022-09-24T08:41:12.683Z,99789.31
2022-09-24T08:43:53.742Z,99799.78
2022-09-24T08:46:44.305Z,99790.88
2022-09-24T08:49:18.120Z,99793.47
2022-09-24T08:52:02.055Z,99796.97
2022-09-24T08:54:31.089Z,99790.03
2022-09-24T08:57:00.094Z,99781.19
2022-09-24T08:59:30.483Z,99780.81
2022-09-24T09:02:04.339Z,99775.22
2022-09-24T09:04:48.332Z,99768.72
2022-09-24T09:07:21.620Z,99770.69
2022-09-24T09:09:55.957Z,99775.59
2022-09-24T09:12:23.498Z,99776.28
2022-09-24T09:14:58.280Z,99773.56
2022-09-24T09:17:52.032Z,99770.44
2022-09-24T09:20:42.530Z,99776.09
2022-09-24T09:23:21.938Z,99776.31
2022-09-24T09:25:54.715Z,99778.56
2022-09-24T09:28:21.584Z,99776.13
2022-09-24T09:30:56.691Z,99784.53
2022-09-24T09:33:45.111Z,99780.91
2022-09-24T09:36:43.368Z,99781.09
2022-09-24T09:39:49.812Z,99780.59
2022-09-24T09:42:36.018Z,99783.66
2022-09-24T09:45:21.908Z,99781.88
2022-09-24T09:47:54.447Z,99789.91
2022-09-24T09:50:52.044Z,99786.09
2022-09-24T09:53:26.979Z,99787.50
2022-09-24T09:56:00.242Z,99789.34
2022-09-24T09:58:29.191Z,99789.88
2022-09-24T10:01:09.764Z,99783.50
2022-09-24T10:03:52.108Z,99791.84
2022-09-24T10:06:27.826Z,99779.41
2022-09-24T10:09:20.544Z,99783.22
2022-09-24T10:12:06.053Z,99781.63
2022-09-24T10:14:43.540Z,99767.50
2022-09-24T10:17:16.216Z,99772.75
2022-09-24T10:19:50.993Z,99767.91
2022-09-24T10:23:16.572Z,99764.13
2022-09-24T10:26:00.677Z,99763.63
2022-09-24T10:33:10.709Z,99761.63
2022-09-24T10:35:38.807Z,99766.28
2022-09-24T10:38:18.032Z,99763.22
2022-09-24T10:40:44.899Z,99758.31
2022-09-24T10:43:20.818Z,99761.50
2022-09-24T10:46:25.447Z,99758.06
2022-09-24T10:49:03.429Z,99760.47
2022-09-24T10:51:59.207Z,99761.88
2022-09-24T10:54:50.340Z,99755.56
2022-09-24T10:57:28.512Z,99749.00
2022-09-24T11:00:02.910Z,99754.53
2022-09-24T11:02:41.501Z,99749.34
2022-09-24T11:05:15.441Z,99753.63
2022-09-24T11:08:01.727Z,99750.78
2022-09-24T11:10:59.074Z,99741.00
2022-09-24T11:13:47.914Z,99745.22
2022-09-24T11:16:47.372Z,99740.31
2022-09-24T11:19:41.253Z,99727.25
2022-09-24T11:22:10.710Z,99718.66
2022-09-24T11:24:53.297Z,99722.53
2022-09-24T11:27:39.749Z,99729.56
2022-09-24T11:30:14.290Z,99721.19
2022-09-24T11:32:47.026Z,99718.50
2022-09-24T11:35:20.799Z,99720.41
2022-09-24T11:38:03.782Z,99729.13
2022-09-24T11:41:00.513Z,99722.81
2022-09-24T11:43:48.855Z,99725.78
2022-09-24T11:46:48.247Z,99706.69
2022-09-24T11:49:38.154Z,99709.63
2022-09-24T11:52:25.334Z,99710.41
2022-09-24T11:55:15.174Z,99713.97
2022-09-24T11:57:47.614Z,99704.00
2022-09-24T12:00:17.669Z,99705.59
2022-09-24T12:02:50.100Z,99702.19
2022-09-24T12:05:26.623Z,99692.31
2022-09-24T12:08:27.658Z,99695.47
2022-09-24T12:11:04.110Z,99699.22
2022-09-24T12:13:41.886Z,99691.31
2022-09-24T12:16:14.131Z,99692.59
2022-09-24T12:18:50.531Z,99683.88
2022-09-24T12:21:26.707Z,99681.16
2022-09-24T12:24:02.967Z,99686.91
2022-09-24T12:26:31.271Z,99681.31
2022-09-24T12:29:42.239Z,99679.00
2022-09-24T12:32:45.365Z,99678.63
2022-09-24T12:35:58.048Z,99686.66
2022-09-24T12:38:32.479Z,99678.41
2022-09-24T12:41:26.404Z,99675.25
2022-09-24T12:44:21.058Z,99666.34
2022-09-24T12:46:53.105Z,99666.13
2022-09-24T12:49:30.576Z,99678.56
2022-09-24T12:52:00.356Z,99672.06
2022-09-24T12:54:37.077Z,99671.34
2022-09-24T12:57:48.185Z,99666.94
2022-09-24T13:00:35.660Z,99665.13
2022-09-24T13:03:06.283Z,99656.13
2022-09-24T13:05:40.734Z,99662.00
2022-09-24T13:08:07.128Z,99663.06
2022-09-24T13:10:36.391Z,99648.53
2022-09-24T13:13:21.352Z,99652.22
2022-09-24T13:16:00.666Z,99645.41
2022-09-24T13:18:27.513Z,99644.53
2022-09-24T13:21:08.530Z,99630.38
2022-09-24T13:23:38.692Z,99643.25
2022-09-24T13:26:09.390Z,99634.00
2022-09-24T13:28:48.454Z,99646.34
2022-09-24T13:31:21.284Z,99637.00
2022-09-24T13:33:57.000Z,99640.69
2022-09-24T13:36:33.460Z,99640.97
2022-09-24T13:39:12.993Z,99641.50
2022-09-24T13:42:11.798Z,99640.31
2022-09-24T13:44:42.377Z,99646.44
2022-09-24T13:47:11.931Z,99640.97
2022-09-24T13:49:44.476Z,99645.00
2022-09-24T13:52:35.962Z,99642.34
2022-09-24T13:55:11.932Z,99644.88
2022-09-24T13:57:46.147Z,99649.47
2022-09-24T14:00:15.353Z,99649.56
2022-09-24T14:02:45.969Z,99650.47
2022-09-24T14:05:17.601Z,99641.72
2022-09-24T14:07:55.888Z,99640.28
2022-09-24T14:10:24.911Z,99635.22
2022-09-24T14:13:15.482Z,99641.06
2022-09-24T14:15:55.748Z,99632.28
2022-09-24T14:18:23.862Z,99631.34
2022-09-24T14:20:59.698Z,99631.31
2022-09-24T14:23:30.975Z,99640.16
2022-09-24T14:25:58.586Z,99630.25
2022-09-24T14:28:25.584Z,99634.63
2022-09-24T14:30:54.977Z,99626.41
2022-09-24T14:33:32.959Z,99631.53
2022-09-24T14:36:02.358Z,99626.41
2022-09-24T14:38:34.343Z,99630.56
2022-09-24T14:41:08.882Z,99627.09
2022-09-24T14:43:42.839Z,99622.94
2022-09-24T14:46:17.860Z,99628.88
2022-09-24T14:48:44.521Z,99621.00
2022-09-24T14:51:29.059Z,99618.31
2022-09-24T14:54:33.022Z,99617.69
2022-09-24T14:57:35.307Z,99619.81
2022-09-24T15:00:02.079Z,99619.81
2022-09-24T15:02:28.528Z,99611.31
2022-09-24T15:05:04.854Z,99617.06
2022-09-24T15:07:33.929Z,99614.50
2022-09-24T15:10:02.676Z,99613.19
2022-09-24T15:12:32.361Z,99614.50
2022-09-24T15:15:17.061Z,99608.41
2022-09-24T15:17:47.115Z,99611.31
2022-09-24T15:20:14.131Z,99620.78
2022-09-24T15:22:40.560Z,99619.59
2022-09-24T15:25:07.613Z,99615.78
2022-09-24T15:27:38.261Z,99611.31
2022-09-24T15:30:07.936Z,99618.53
2022-09-24T15:32:35.924Z,99620.78
2022-09-24T15:35:08.340Z,99617.38
2022-09-24T15:37:39.034Z,99612.91
2022-09-24T15:40:20.586Z,99618.22
2022-09-24T15:42:47.233Z,99614.41
2022-09-24T15:45:19.573Z,99615.03
2022-09-24T15:47:46.013Z,99617.38
2022-09-24T15:50:12.774Z,99622.88
2022-09-24T15:52:49.923Z,99609.91
2022-09-24T15:55:19.191Z,99615.47
2022-09-24T15:57:46.858Z,99608.94
2022-09-24T16:00:24.338Z,99615.75
2022-09-24T16:02:54.011Z,99612.03
2022-09-24T16:05:21.033Z,99610.25
2022-09-24T16:07:47.715Z,99603.31
2022-09-24T16:10:16.095Z,99615.94
2022-09-24T16:12:43.174Z,99611.91
2022-09-24T16:15:15.321Z,99614.47
2022-09-24T16:17:42.491Z,99620.44
2022-09-24T16:20:12.654Z,99615.03
2022-09-24T16:22:39.132Z,99617.38
2022-09-24T16:25:06.145Z,99613.88
2022-09-24T16:27:35.171Z,99616.09
2022-09-24T16:30:02.530Z,99624.63
2022-09-24T16:32:28.984Z,99624.38
2022-09-24T16:34:56.826Z,99627.47
2022-09-24T16:37:24.171Z,99627.72
2022-09-24T16:39:50.640Z,99626.75
2022-09-24T16:42:17.133Z,99629.59
2022-09-24T16:44:43.592Z,99636.94
2022-09-24T16:47:10.210Z,99631.72
2022-09-24T16:49:36.896Z,99639.19
2022-09-24T16:52:03.568Z,99634.63
2022-09-24T16:54:31.215Z,99635.25
2022-09-24T16:56:57.902Z,99630.56
2022-09-24T16:59:24.423Z,99631.09
2022-09-24T17:01:51.004Z,99636.59
2022-09-24T17:04:17.952Z,99632.34
2022-09-24T17:06:45.094Z,99633.13
2022-09-24T17:09:30.339Z,99633.50
2022-09-24T17:11:57.181Z,99634.72
2022-09-24T17:14:24.003Z,99626.28
2022-09-24T17:16:50.570Z,99628.19
2022-09-24T17:19:17.057Z,99629.56
2022-09-24T17:21:46.090Z,99637.19
2022-09-24T17:24:13.822Z,99635.03
2022-09-24T17:26:41.906Z,99630.81
2022-09-24T17:29:09.718Z,99633.13
2022-09-24T17:31:36.377Z,99641.38
2022-09-24T17:34:05.421Z,99639.03
2022-09-24T17:36:33.864Z,99636.53
2022-09-24T17:39:01.120Z,99642.56
2022-09-24T17:41:29.817Z,99644.78
2022-09-24T17:43:59.728Z,99643.28
2022-09-24T17:46:31.485Z,99642.72
2022-09-24T17:48:59.909Z,99649.75
2022-09-24T17:51:32.467Z,99650.59
2022-09-24T17:54:01.467Z,99653.63
2022-09-24T17:56:31.974Z,99652.22
2022-09-24T17:58:59.211Z,99652.16
2022-09-24T18:01:36.016Z,99658.94
2022-09-24T18:04:05.934Z,99658.06
2022-09-24T18:06:36.318Z,99662.31
2022-09-24T18:09:04.061Z,99672.09
2022-09-24T18:11:34.022Z,99668.34
2022-09-24T18:14:02.560Z,99679.44
2022-09-24T18:16:31.169Z,99693.03
2022-09-24T18:19:02.494Z,99693.59
2022-09-24T18:21:29.883Z,99694.09
2022-09-24T18:23:58.827Z,99693.72
2022-09-24T18:26:29.396Z,99692.22
2022-09-24T18:28:58.571Z,99695.34
2022-09-24T18:31:28.146Z,99695.22
2022-09-24T18:33:56.683Z,99697.19
2022-09-24T18:36:25.471Z,99705.63
2022-09-24T18:38:52.096Z,99709.09
2022-09-24T18:41:21.347Z,99713.78
2022-09-24T18:43:48.133Z,99707.25
2022-09-24T18:46:16.624Z,99706.41
2022-09-24T18:48:44.592Z,99710.69
2022-09-24T18:51:20.855Z,99717.91
2022-09-24T18:53:55.990Z,99715.50
2022-09-24T18:56:24.141Z,99710.16
2022-09-24T18:58:58.786Z,99710.84
2022-09-24T19:01:27.016Z,99711.94
2022-09-24T19:03:54.774Z,99704.63
2022-09-24T19:06:21.474Z,99705.56
2022-09-24T19:08:49.014Z,99705.03
2022-09-24T19:11:16.254Z,99706.28
2022-09-24T19:13:46.899Z,99706.88
2022-09-24T19:16:14.644Z,99710.78
2022-09-24T19:18:41.836Z,99712.81
2022-09-24T19:21:14.068Z,99710.16
2022-09-24T19:23:43.647Z,99706.50
2022-09-24T19:26:12.718Z,99705.06
2022-09-24T19:28:41.246Z,99713.09
2022-09-24T19:31:17.107Z,99709.50
2022-09-24T19:33:44.095Z,99715.38
2022-09-24T19:36:11.077Z,99725.63
2022-09-24T19:38:38.114Z,99727.34
2022-09-24T19:41:19.241Z,99730.78
2022-09-24T19:43:45.712Z,99728.91
2022-09-24T19:46:14.601Z,99723.38
2022-09-24T19:48:43.073Z,99728.19
2022-09-24T19:51:14.063Z,99734.44
2022-09-24T19:53:40.966Z,99737.06
2022-09-24T19:56:09.233Z,99737.00
2022-09-24T19:58:36.625Z,99739.53
2022-09-24T20:01:08.088Z,99733.81
2022-09-24T20:03:36.149Z,99730.63
2022-09-24T20:06:11.451Z,99730.00
2022-09-24T20:08:38.619Z,99724.78
2022-09-24T20:11:07.567Z,99728.75
2022-09-24T20:13:34.885Z,99724.47
2022-09-24T20:16:04.085Z,99723.34
2022-09-24T20:18:34.401Z,99723.13
2022-09-24T20:21:05.400Z,99725.69
2022-09-24T20:23:31.897Z,99726.63
2022-09-24T20:26:17.166Z,99734.22
2022-09-24T20:28:43.662Z,99739.03
2022-09-24T20:31:15.095Z,99736.44
2022-09-24T20:33:43.104Z,99742.03
2022-09-24T20:36:15.845Z,99744.34
2022-09-24T20:38:46.139Z,99743.41
2022-09-24T20:41:18.478Z,99742.16
2022-09-24T20:43:45.795Z,99752.75
2022-09-24T20:46:16.617Z,99743.97
2022-09-24T20:48:43.579Z,99747.78
2022-09-24T20:51:17.356Z,99753.56
2022-09-24T20:53:44.766Z,99749.03
2022-09-24T20:56:11.738Z,99751.69
2022-09-24T20:58:39.906Z,99746.44
2022-09-24T21:01:07.764Z,99748.88
2022-09-24T21:03:44.898Z,99750.66
2022-09-24T21:06:12.468Z,99756.13
2022-09-24T21:08:41.361Z,99746.56
2022-09-24T21:11:16.027Z,99752.13
2022-09-24T21:13:45.638Z,99751.28
2022-09-24T21:16:12.539Z,99749.00
2022-09-24T21:18:43.889Z,99746.94
2022-09-24T21:21:18.821Z,99749.31
2022-09-24T21:23:47.289Z,99755.69
2022-09-24T21:26:25.222Z,99751.91
2022-09-24T21:28:54.641Z,99758.50
2022-09-24T21:31:23.954Z,99758.91
2022-09-24T21:33:54.849Z,99762.91
2022-09-24T21:36:24.202Z,99763.78
2022-09-24T21:38:54.154Z,99779.13
2022-09-24T21:41:22.615Z,99776.34
2022-09-24T21:43:49.177Z,99771.47
2022-09-24T21:46:15.769Z,99770.63
2022-09-24T21:48:42.249Z,99774.69
2022-09-24T21:51:13.797Z,99778.56
2022-09-24T21:53:40.524Z,99770.41
2022-09-24T21:56:07.154Z,99781.09
2022-09-24T21:58:33.861Z,99789.94
